This is the latest recevied weather packets stored in our database for station/object SP4LIN-15. If no packets are shown the sender has not sent any weather packets the latest 10 day(s).
| Time | Temp. | Humidity | Pressure | Rain* | Wind** | Luminosity | Snow |
|---|---|---|---|---|---|---|---|
| 1777634549 | 25.56° C | 36% | 1018.5 hPa | 0 mm | - | - | - |
| 1777633649 | 24.44° C | 37% | 1018.6 hPa | 0 mm | - | - | - |
| 1777632749 | 24.44° C | 36% | 1018.7 hPa | 0 mm | - | - | - |
| 1777631849 | 23.89° C | 37% | 1018.6 hPa | 0 mm | - | - | - |
| 1777630949 | 23.89° C | 37% | 1018.6 hPa | 0 mm | - | - | - |
| 1777630049 | 23.89° C | 38% | 1018.6 hPa | 0 mm | - | - | - |
| 1777629149 | 23.89° C | 36% | 1018.9 hPa | 0 mm | - | - | - |
| 1777628249 | 23.33° C | 39% | 1019 hPa | 0 mm | - | - | - |
| 1777627349 | 22.78° C | 38% | 1019.1 hPa | 0 mm | - | - | - |
| 1777626449 | 21.67° C | 40% | 1019.1 hPa | 0 mm | - | - | - |
| 1777625549 | 21.67° C | 38% | 1019.1 hPa | 0 mm | - | - | - |
| 1777624649 | 22.22° C | 38% | 1019.4 hPa | 0 mm | - | - | - |
| 1777623749 | 21.67° C | 39% | 1019.3 hPa | 0 mm | - | - | - |
| 1777622849 | 21.67° C | 40% | 1019.4 hPa | 0 mm | - | - | - |
| 1777621949 | 21.67° C | 41% | 1019.5 hPa | 0 mm | - | - | - |
| 1777621049 | 20.56° C | 41% | 1019.4 hPa | 0 mm | - | - | - |
| 1777620149 | 20.56° C | 43% | 1019.4 hPa | 0 mm | - | - | - |
| 1777619249 | 20° C | 44% | 1019.4 hPa | 0 mm | - | - | - |
| 1777618349 | 18.33° C | 48% | 1019.2 hPa | 0 mm | - | - | - |
| 1777617450 | 17.22° C | 50% | 1019.1 hPa | 0 mm | - | - | - |
| 1777616550 | 16.11° C | 52% | 1019 hPa | 0 mm | - | - | - |
| 1777615650 | 15.56° C | 55% | 1018.9 hPa | 0 mm | - | - | - |
| 1777614750 | 14.44° C | 58% | 1018.9 hPa | 0 mm | - | - | - |
| 1777613849 | 11.67° C | 67% | 1019 hPa | 0 mm | - | - | - |
| 1777612950 | 9.44° C | 74% | 1018.8 hPa | 0 mm | - | - | - |
* Rain latest hour (hover to see other rain measurements)
** Current wind speed in m/s (hover to see current wind gust speed)